Time;durP1;ratioP1;P1;durP2;ratioP2;P2;SDS_P1;SDS_P2;PMS_P1;PMS_P2;Temp;Humidity;BMP_temperature;BMP_pressure;BME280_temperature;BME280_humidity;BME280_pressure;Samples;Min_cycle;Max_cycle;Signal;HPM_P1;HPM_P2
2024/01/13 00:02:31;;;;;;;1999.90;999.90;;;;;;;3.02;100.00;102802.69;10333476;28;20085;-66
2024/01/13 00:07:33;;;;;;;1999.90;999.90;;;;;;;2.97;100.00;102797.50;10333468;28;20057;-66
2024/01/13 00:12:36;;;;;;;1999.90;999.90;;;;;;;2.94;100.00;102794.91;10333130;28;20565;-66
2024/01/13 00:17:38;;;;;;;1999.90;999.90;;;;;;;2.76;100.00;102784.44;10333690;28;20056;-66
2024/01/13 00:22:47;;;;;;;1999.90;999.90;;;;;;;2.72;100.00;102783.56;10333196;28;20050;-66
2024/01/13 00:27:50;;;;;;;1999.90;999.90;;;;;;;2.87;100.00;102787.09;10331937;28;20050;-66
2024/01/13 00:32:52;;;;;;;1999.90;999.90;;;;;;;2.85;100.00;102781.03;10331903;28;20050;-66
2024/01/13 00:37:55;;;;;;;1999.90;999.90;;;;;;;2.80;100.00;102781.00;10336443;28;20449;-66
2024/01/13 00:42:59;;;;;;;1999.90;999.90;;;;;;;2.88;100.00;102778.47;10339283;28;20056;-66
2024/01/13 00:48:01;;;;;;;1999.90;999.90;;;;;;;2.78;100.00;102765.47;10339880;28;20586;-66
2024/01/13 00:53:04;;;;;;;1999.90;999.90;;;;;;;2.75;100.00;102762.84;10340138;28;20062;-66
2024/01/13 00:58:07;;;;;;;1999.90;999.90;;;;;;;2.69;100.00;102761.94;10339566;28;20430;-66
2024/01/13 01:03:09;;;;;;;1999.90;999.90;;;;;;;2.89;100.00;102749.13;10338268;28;20069;-66
2024/01/13 01:08:11;;;;;;;1999.90;999.90;;;;;;;2.87;100.00;102746.53;10321892;28;20074;-66
2024/01/13 01:13:24;;;;;;;1999.90;999.90;;;;;;;2.56;100.00;102737.72;10339051;28;20054;-66
2024/01/13 01:18:26;;;;;;;1999.90;999.90;;;;;;;2.88;100.00;102729.31;10339001;28;20122;-66
2024/01/13 01:23:45;;;;;;;1999.90;999.90;;;;;;;2.81;100.00;102727.53;10337705;28;20050;-66
2024/01/13 01:28:48;;;;;;;1999.90;999.90;;;;;;;2.83;100.00;102705.16;10338423;28;20125;-66
2024/01/13 01:33:50;;;;;;;1999.90;999.90;;;;;;;2.86;100.00;102708.59;10337167;28;20089;-66
2024/01/13 01:38:53;;;;;;;1999.90;999.90;;;;;;;2.76;100.00;102697.34;10337156;28;20057;-66
2024/01/13 01:43:55;;;;;;;1999.90;999.90;;;;;;;2.78;100.00;102697.34;10336796;28;20089;-66
2024/01/13 01:48:59;;;;;;;1999.90;999.90;;;;;;;2.76;100.00;102694.75;10336960;28;20393;-66
2024/01/13 01:54:02;;;;;;;1999.90;999.90;;;;;;;2.79;100.00;102717.16;10337684;28;20105;-66
2024/01/13 01:59:06;;;;;;;1999.90;999.90;;;;;;;2.78;100.00;102697.34;10336109;28;20536;-66
2024/01/13 02:04:08;;;;;;;1999.90;999.90;;;;;;;2.68;100.00;102695.56;10337394;28;20050;-66
2024/01/13 02:09:12;;;;;;;1999.90;999.90;;;;;;;2.80;100.00;102693.03;10336979;28;20046;-66
2024/01/13 02:14:14;;;;;;;1999.90;999.90;;;;;;;2.64;100.00;102698.97;10335489;28;20553;-66
2024/01/13 02:19:17;;;;;;;1999.90;999.90;;;;;;;2.55;100.00;102685.13;10335343;28;20076;-66
2024/01/13 02:24:19;;;;;;;1999.90;999.90;;;;;;;2.46;100.00;102690.25;10336300;28;20521;-66
2024/01/13 02:29:22;;;;;;;1999.90;999.90;;;;;;;2.44;100.00;102676.47;10334909;28;20100;-66
2024/01/13 02:34:24;;;;;;;1999.90;999.90;;;;;;;2.53;100.00;102675.66;10336016;28;20060;-66
2024/01/13 02:39:27;;;;;;;1999.90;999.90;;;;;;;2.54;100.00;102660.16;10335692;28;20486;-66
2024/01/13 02:44:29;;;;;;;1999.90;999.90;;;;;;;2.56;100.00;102657.56;10335555;28;20054;-66
2024/01/13 02:49:32;;;;;;;1999.90;999.90;;;;;;;2.65;100.00;102629.16;10334305;28;20108;-66
2024/01/13 02:54:34;;;;;;;1999.90;999.90;;;;;;;2.78;100.00;102619.75;10334825;28;20054;-66
2024/01/13 02:59:37;;;;;;;1999.90;999.90;;;;;;;2.68;100.00;102610.22;10316964;28;20080;-66
2024/01/13 03:04:39;;;;;;;1999.90;999.90;;;;;;;2.60;100.00;102603.25;10334930;28;20129;-66
2024/01/13 03:09:41;;;;;;;1999.90;999.90;;;;;;;2.49;100.00;102589.44;10334761;28;20046;-66
2024/01/13 03:14:44;;;;;;;1999.90;999.90;;;;;;;2.62;100.00;102592.06;10334451;28;20054;-66
2024/01/13 03:19:47;;;;;;;1999.90;999.90;;;;;;;2.65;100.00;102579.16;10334392;28;20547;-66
2024/01/13 03:24:49;;;;;;;1999.90;999.90;;;;;;;2.76;100.00;102580.94;10317115;28;20113;-66
2024/01/13 03:29:52;;;;;;;1999.90;999.90;;;;;;;2.55;100.00;102576.53;10333149;28;20052;-66
2024/01/13 03:34:54;;;;;;;1999.90;999.90;;;;;;;2.67;100.00;102577.44;10333918;28;20453;-66
2024/01/13 03:39:56;;;;;;;1999.90;999.90;;;;;;;2.69;100.00;102574.00;10334270;28;20077;-66
2024/01/13 03:44:59;;;;;;;1999.90;999.90;;;;;;;2.79;100.00;102561.94;10333679;28;20484;-66
2024/01/13 03:50:01;;;;;;;1999.90;999.90;;;;;;;2.63;100.00;102548.13;10333841;28;20104;-66
2024/01/13 03:55:04;;;;;;;1999.90;999.90;;;;;;;2.55;100.00;102548.06;10333404;28;20512;-66
2024/01/13 04:00:08;;;;;;;1999.90;999.90;;;;;;;2.76;100.00;102534.38;10332300;28;20413;-66
2024/01/13 04:05:11;;;;;;;1999.90;999.90;;;;;;;2.83;100.00;102535.25;10316208;28;20050;-66
2024/01/13 04:10:13;;;;;;;1999.90;999.90;;;;;;;2.68;100.00;102530.88;10334226;28;20053;-66
2024/01/13 04:15:15;;;;;;;1999.90;999.90;;;;;;;2.66;100.00;102529.19;10341269;28;20053;-66
2024/01/13 04:20:18;;;;;;;1999.90;999.90;;;;;;;2.75;100.00;102521.44;10341315;28;20054;-66
2024/01/13 04:25:20;;;;;;;1999.90;999.90;;;;;;;2.63;100.00;102511.91;10341188;28;20082;-66
2024/01/13 04:30:23;;;;;;;1999.90;999.90;;;;;;;2.64;100.00;102513.66;10340873;28;20130;-66
2024/01/13 04:35:26;;;;;;;1999.90;999.90;;;;;;;2.72;100.00;102508.47;10339390;28;20046;-66
2024/01/13 04:40:30;;;;;;;1999.90;999.90;;;;;;;2.66;100.00;102505.91;10339696;28;20055;-66
2024/01/13 04:45:32;;;;;;;1999.90;999.90;;;;;;;2.84;100.00;102505.06;10340251;28;20056;-66
2024/01/13 04:50:34;;;;;;;1999.90;999.90;;;;;;;2.93;100.00;102507.69;10340031;28;20064;-66
2024/01/13 04:55:37;;;;;;;1999.90;999.90;;;;;;;2.97;100.00;102510.25;10339561;28;20480;-66
2024/01/13 05:00:39;;;;;;;1999.90;999.90;;;;;;;2.68;100.00;102501.59;10339562;28;20063;-66
2024/01/13 05:05:42;;;;;;;1999.90;999.90;;;;;;;2.74;100.00;102505.06;10339509;28;20134;-66
2024/01/13 05:10:44;;;;;;;1999.90;999.90;;;;;;;2.72;100.00;102500.72;10339204;28;20054;-66
2024/01/13 05:15:47;;;;;;;1999.90;999.90;;;;;;;2.76;100.00;102505.06;10339159;28;20057;-66
2024/01/13 05:20:49;;;;;;;1999.90;999.90;;;;;;;2.97;100.00;102499.06;10338943;28;20061;-66
2024/01/13 05:25:51;;;;;;;1999.90;999.90;;;;;;;2.91;100.00;102504.25;10337574;28;20042;-66
2024/01/13 05:30:54;;;;;;;1999.90;999.90;;;;;;;2.95;100.00;102495.59;10339009;28;20054;-66
2024/01/13 05:35:56;;;;;;;1999.90;999.90;;;;;;;2.79;100.00;102493.00;10338312;28;20053;-66
2024/01/13 05:40:59;;;;;;;1999.90;999.90;;;;;;;2.77;100.00;102494.72;10336939;28;20160;-66
2024/01/13 05:46:01;;;;;;;1999.90;999.90;;;;;;;2.67;100.00;102498.13;10336636;28;20375;-66
2024/01/13 05:51:04;;;;;;;1999.90;999.90;;;;;;;2.74;100.00;102499.88;10337965;28;20050;-66
2024/01/13 05:56:06;;;;;;;1999.90;999.90;;;;;;;2.69;100.00;102480.91;10337438;28;20046;-66
2024/01/13 06:01:09;;;;;;;1999.90;999.90;;;;;;;2.71;100.00;102470.56;10337315;28;20150;-66
2024/01/13 06:06:11;;;;;;;1999.90;999.90;;;;;;;2.63;100.00;102449.00;10337476;28;20108;-66
2024/01/13 06:11:14;;;;;;;1999.90;999.90;;;;;;;2.92;100.00;102430.91;10336859;28;20490;-66
2024/01/13 06:16:17;;;;;;;1999.90;999.90;;;;;;;2.78;100.00;102423.16;10336990;28;20046;-66
2024/01/13 06:21:19;;;;;;;1999.90;999.90;;;;;;;2.64;100.00;102411.91;10319564;28;20058;-66
2024/01/13 06:26:27;;;;;;;1999.90;999.90;;;;;;;2.68;100.00;102429.16;10336506;28;20050;-66
2024/01/13 06:31:29;;;;;;;1999.90;999.90;;;;;;;2.68;100.00;102444.69;10336024;28;20498;-66
2024/01/13 06:36:32;;;;;;;1999.90;999.90;;;;;;;2.81;100.00;102425.75;10334547;28;20101;-66
2024/01/13 06:41:34;;;;;;;1999.90;999.90;;;;;;;2.82;100.00;102416.25;10318410;28;20077;-66
2024/01/13 06:46:37;;;;;;;1999.90;999.90;;;;;;;2.75;100.00;102413.66;10334470;28;20047;-66
2024/01/13 06:51:39;;;;;;;1999.90;999.90;;;;;;;2.81;100.00;102386.06;10335293;28;20058;-66
2024/01/13 06:56:42;;;;;;;1999.90;999.90;;;;;;;2.82;100.00;102367.94;10334984;28;20062;-66
2024/01/13 07:01:47;;;;;;;1999.90;999.90;;;;;;;2.96;100.00;102335.19;10334942;28;20054;-66
2024/01/13 07:06:50;;;;;;;1999.90;999.90;;;;;;;2.90;100.00;102352.44;10335248;28;20053;-66
2024/01/13 07:11:53;;;;;;;1999.90;999.90;;;;;;;3.09;100.00;102358.44;10333512;28;20481;-66
2024/01/13 07:16:55;;;;;;;1999.90;999.90;;;;;;;2.83;100.00;102342.97;10333325;28;20287;-66
2024/01/13 07:21:58;;;;;;;1999.90;999.90;;;;;;;2.92;100.00;102345.53;10333176;28;20413;-66
2024/01/13 07:27:00;;;;;;;1999.90;999.90;;;;;;;2.92;100.00;102328.28;10334217;28;20137;-66
2024/01/13 07:32:03;;;;;;;1999.90;999.90;;;;;;;2.81;100.00;102324.84;10334017;28;20457;-66
2024/01/13 07:37:05;;;;;;;1999.90;999.90;;;;;;;3.02;100.00;102338.63;10333857;28;20074;-66
2024/01/13 07:42:07;;;;;;;1999.90;999.90;;;;;;;2.85;100.00;102336.91;10332690;28;20478;-67
2024/01/13 07:47:10;;;;;;;1999.90;999.90;;;;;;;2.89;100.00;102338.66;10333330;28;20066;-66
2024/01/13 07:52:12;;;;;;;1999.90;999.90;;;;;;;2.98;100.00;102292.06;10332473;28;20081;-67
2024/01/13 07:57:14;;;;;;;1999.90;999.90;;;;;;;2.94;100.00;102300.69;10316259;28;20056;-67
2024/01/13 08:02:17;;;;;;;1999.90;999.90;;;;;;;3.02;100.00;102299.81;10332316;28;20057;-67
2024/01/13 08:07:22;;;;;;;1999.90;999.90;;;;;;;3.01;100.00;102291.19;10340040;22;20042;-68
2024/01/13 08:12:26;;;;;;;1999.90;999.90;;;;;;;3.10;100.00;102291.16;10333490;28;20058;-69
2024/01/13 08:17:29;;;;;;;1999.90;999.90;;;;;;;3.07;100.00;102293.75;10333422;28;20054;-69
2024/01/13 08:22:32;;;;;;;1999.90;999.90;;;;;;;2.98;100.00;102280.84;10333317;28;20134;-69
2024/01/13 08:27:34;;;;;;;1999.90;999.90;;;;;;;2.87;100.00;102296.38;10331804;28;20050;-69
2024/01/13 08:32:36;;;;;;;1999.90;999.90;;;;;;;3.20;100.00;102296.34;10333124;28;20050;-69
2024/01/13 08:37:39;;;;;;;1999.90;999.90;;;;;;;3.11;100.00;102297.19;10332886;28;20441;-69
2024/01/13 08:42:42;;;;;;;1999.90;999.90;;;;;;;3.11;100.00;102303.25;10332736;28;20046;-69
2024/01/13 08:47:44;;;;;;;1999.90;999.90;;;;;;;3.13;100.00;102290.31;10332702;28;20043;-69
2024/01/13 08:52:48;;;;;;;1999.90;999.90;;;;;;;3.08;100.00;102292.91;10331392;28;20101;-69
2024/01/13 08:57:50;;;;;;;1999.90;999.90;;;;;;;3.13;100.00;102282.53;10334201;28;20121;-69
2024/01/13 09:02:53;;;;;;;1999.90;999.90;;;;;;;3.06;100.00;102284.28;10338454;28;20125;-70
2024/01/13 09:07:57;;;;;;;1999.90;999.90;;;;;;;2.97;100.00;102286.88;10339288;28;20055;-69
2024/01/13 09:12:59;;;;;;;1999.90;999.90;;;;;;;3.09;100.00;102280.81;10339119;28;20409;-69
2024/01/13 09:18:03;;;;;;;1999.90;999.90;;;;;;;3.14;100.00;102279.06;10337795;28;20482;-70
2024/01/13 09:23:05;;;;;;;1999.90;999.90;;;;;;;3.29;100.00;102281.63;10338747;28;20082;-69
2024/01/13 09:28:09;;;;;;;1999.90;999.90;;;;;;;3.15;100.00;102283.41;10338404;28;20125;-69
2024/01/13 09:33:12;;;;;;;1999.90;999.90;;;;;;;3.34;100.00;102272.09;10338395;28;20574;-69
2024/01/13 09:38:14;;;;;;;1999.90;999.90;;;;;;;3.22;100.00;102263.53;10338056;28;20053;-69
2024/01/13 09:43:19;;;;;;;1999.90;999.90;;;;;;;3.29;100.00;102263.50;10337995;28;20050;-69
2024/01/13 09:48:22;;;;;;;1999.90;999.90;;;;;;;3.20;100.00;102260.09;10337794;28;20061;-69
2024/01/13 09:53:29;;;;;;;1999.90;999.90;;;;;;;3.33;100.00;102249.69;10320564;28;20049;-70
2024/01/13 09:58:31;;;;;;;1999.90;999.90;;;;;;;3.44;100.00;102256.53;10337601;28;20050;-70
2024/01/13 10:03:34;;;;;;;1999.90;999.90;;;;;;;3.24;100.00;102252.28;10336092;28;20382;-70
2024/01/13 10:08:37;;;;;;;1999.90;999.90;;;;;;;3.45;100.00;102245.34;10335026;28;20516;-70
2024/01/13 10:13:40;;;;;;;1999.90;999.90;;;;;;;3.42;100.00;102232.41;10335867;28;20050;-70
2024/01/13 10:18:42;;;;;;;1999.90;999.90;;;;;;;3.37;100.00;102237.59;10335700;28;20048;-70
2024/01/13 10:23:45;;;;;;;1999.90;999.90;;;;;;;3.51;100.00;102227.16;10336433;28;20054;-70
2024/01/13 10:28:48;;;;;;;1999.90;999.90;;;;;;;3.50;100.00;102225.44;10336418;28;20050;-71
2024/01/13 10:33:52;;;;;;;1999.90;999.90;;;;;;;3.50;100.00;102222.88;10336162;28;20125;-71
2024/01/13 10:38:58;;;;;;;1999.90;999.90;;;;;;;3.46;100.00;102219.44;10334673;28;20426;-70
2024/01/13 10:44:03;;;;;;;1999.90;999.90;;;;;;;3.41;100.00;102207.34;10335865;28;20054;-70
2024/01/13 10:49:16;;;;;;;1999.90;999.90;;;;;;;3.61;100.00;102189.97;10334363;28;20096;-70
2024/01/13 10:54:19;;;;;;;1999.90;999.90;;;;;;;3.38;100.00;102184.06;10334384;28;20061;-70
2024/01/13 10:59:25;;;;;;;1999.90;999.90;;;;;;;3.42;100.00;102160.75;10335170;28;20046;-70
2024/01/13 11:04:28;;;;;;;1999.90;999.90;;;;;;;3.59;100.00;102163.22;10335185;28;20050;-70
2024/01/13 11:09:31;;;;;;;1999.90;999.90;;;;;;;3.46;100.00;102162.47;10334538;28;20138;-70
2024/01/13 11:14:37;;;;;;;1999.90;999.90;;;;;;;3.41;100.00;102174.53;10334539;28;20129;-70
2024/01/13 11:19:43;;;;;;;1999.90;999.90;;;;;;;3.53;100.00;102164.16;10332656;28;20129;-70
2024/01/13 11:24:48;;;;;;;1999.90;999.90;;;;;;;3.49;100.00;102157.25;10334271;28;20051;-70
2024/01/13 11:29:51;;;;;;;1999.90;999.90;;;;;;;3.53;100.00;102147.72;10334088;28;20077;-70
2024/01/13 11:34:57;;;;;;;1999.90;999.90;;;;;;;3.47;100.00;102155.53;10334110;28;20096;-70
2024/01/13 11:40:08;;;;;;;1999.90;999.90;;;;;;;3.40;100.00;102159.91;10333909;28;20401;-69
2024/01/13 11:45:10;;;;;;;1999.90;999.90;;;;;;;3.60;100.00;102149.44;10332688;28;20089;-69
2024/01/13 11:50:35;;;;;;;1999.90;999.90;;;;;;;3.30;100.00;102137.53;10333770;28;20073;-70
2024/01/13 11:55:37;;;;;;;1999.90;999.90;;;;;;;3.32;100.00;102123.69;10332358;28;20517;-70
2024/01/13 12:00:41;;;;;;;1999.90;999.90;;;;;;;3.29;100.00;102108.16;10332574;28;20078;-70
2024/01/13 12:05:43;;;;;;;1999.90;999.90;;;;;;;3.44;100.00;102098.59;10332146;28;20050;-70
2024/01/13 12:10:49;;;;;;;1999.90;999.90;;;;;;;3.42;100.00;102088.25;10315829;28;20051;-70
2024/01/13 12:15:51;;;;;;;1999.90;999.90;;;;;;;3.37;100.00;102090.00;10333514;28;20051;-70
2024/01/13 12:21:00;;;;;;;1999.90;999.90;;;;;;;3.39;100.00;102083.09;10316035;28;20056;-70
2024/01/13 12:26:03;;;;;;;1999.90;999.90;;;;;;;3.21;100.00;102083.22;10331810;28;20485;-70
2024/01/13 12:31:12;;;;;;;1999.90;999.90;;;;;;;3.14;100.00;102082.38;10332618;28;20062;-70
2024/01/13 12:36:15;;;;;;;1999.90;999.90;;;;;;;3.24;100.00;102071.09;10340731;28;20047;-70
2024/01/13 12:41:18;;;;;;;1999.90;999.90;;;;;;;3.34;100.00;102071.91;10339173;28;20047;-70
2024/01/13 12:46:20;;;;;;;1999.90;999.90;;;;;;;3.24;100.00;102071.09;10339971;28;20396;-70
2024/01/13 12:51:22;;;;;;;1999.90;999.90;;;;;;;3.14;100.00;102057.38;10339968;28;20387;-70
2024/01/13 12:56:25;;;;;;;1999.90;999.90;;;;;;;3.14;100.00;102048.75;10339803;28;20043;-69
2024/01/13 13:01:27;;;;;;;1999.90;999.90;;;;;;;3.24;100.00;102042.63;10338622;28;20050;-69
2024/01/13 13:06:30;;;;;;;1999.90;999.90;;;;;;;3.24;100.00;102047.81;10338247;28;20134;-69
2024/01/13 13:11:33;;;;;;;1999.90;999.90;;;;;;;3.13;100.00;102027.19;10337994;28;20093;-69
2024/01/13 13:16:35;;;;;;;1999.90;999.90;;;;;;;3.23;100.00;102017.63;10338008;28;20046;-69
2024/01/13 13:21:38;;;;;;;1999.90;999.90;;;;;;;3.26;100.00;102011.56;10337589;28;20046;-69
2024/01/13 13:26:41;;;;;;;1999.90;999.90;;;;;;;3.26;100.00;102009.84;10338710;28;20050;-69
2024/01/13 13:31:44;;;;;;;1999.90;999.90;;;;;;;3.32;100.00;102004.59;10338407;28;20457;-69
2024/01/13 13:36:46;;;;;;;1999.90;999.90;;;;;;;3.28;100.00;101999.50;10338468;28;20051;-69
2024/01/13 13:41:49;;;;;;;1999.90;999.90;;;;;;;3.25;100.00;101995.19;10338204;28;20050;-69
2024/01/13 13:46:51;;;;;;;1999.90;999.90;;;;;;;3.22;100.00;101994.34;10336039;28;20093;-69
2024/01/13 13:51:55;;;;;;;1999.90;999.90;;;;;;;3.10;100.00;101997.88;10336587;28;20512;-69
2024/01/13 13:56:58;;;;;;;1999.90;999.90;;;;;;;3.24;100.00;101993.44;10337582;28;20046;-69
2024/01/13 14:02:00;;;;;;;1999.90;999.90;;;;;;;3.27;100.00;101983.06;10337572;28;20046;-70
2024/01/13 14:07:03;;;;;;;1999.90;999.90;;;;;;;3.29;100.00;101976.16;10337288;28;20129;-70
2024/01/13 14:12:06;;;;;;;1999.90;999.90;;;;;;;3.24;100.00;101959.81;10337005;28;20408;-70
2024/01/13 14:17:10;;;;;;;1999.90;999.90;;;;;;;3.23;100.00;101947.75;10336900;28;20054;-70
2024/01/13 14:22:12;;;;;;;1999.90;999.90;;;;;;;3.20;100.00;101942.59;10336546;28;20165;-70
2024/01/13 14:27:15;;;;;;;1999.90;999.90;;;;;;;3.25;100.00;101945.16;10335505;28;20493;-70
2024/01/13 14:32:17;;;;;;;1999.90;999.90;;;;;;;3.11;100.00;101942.66;10336032;28;20050;-69
2024/01/13 14:37:20;;;;;;;1999.90;999.90;;;;;;;3.05;100.00;101948.75;10336048;28;20077;-69
2024/01/13 14:42:22;;;;;;;1999.90;999.90;;;;;;;3.02;100.00;101935.81;10335871;28;20047;-70
2024/01/13 14:47:24;;;;;;;1999.90;999.90;;;;;;;3.01;100.00;101936.72;10335428;28;20486;-70
2024/01/13 14:52:27;;;;;;;1999.90;999.90;;;;;;;3.09;100.00;101942.69;10335587;28;20137;-70
2024/01/13 14:57:29;;;;;;;1999.90;999.90;;;;;;;3.09;100.00;101944.41;10335180;28;20054;-70
2024/01/13 15:02:32;;;;;;;1999.90;999.90;;;;;;;3.04;100.00;101938.41;10334037;28;20081;-70
2024/01/13 15:07:34;;;;;;;1999.90;999.90;;;;;;;3.08;100.00;101925.44;10333477;28;20534;-70
2024/01/13 15:12:37;;;;;;;1999.90;999.90;;;;;;;2.85;100.00;101924.75;10334477;28;20082;-70
2024/01/13 15:17:40;;;;;;;1999.90;999.90;;;;;;;2.94;100.00;101915.22;10334582;28;20050;-70
2024/01/13 15:22:43;;;;;;;1999.90;999.90;;;;;;;2.91;100.00;101899.72;10334569;28;20064;-70
2024/01/13 15:27:46;;;;;;;1999.90;999.90;;;;;;;2.73;100.00;101903.28;10334448;28;20053;-70
2024/01/13 15:32:55;;;;;;;1999.90;999.90;;;;;;;2.69;100.00;101906.78;10334016;28;20432;-70
2024/01/13 15:37:58;;;;;;;1999.90;999.90;;;;;;;2.79;100.00;101903.25;10333958;28;20052;-70
2024/01/13 15:43:01;;;;;;;1999.90;999.90;;;;;;;2.73;100.00;101895.50;10332751;28;20054;-70
2024/01/13 15:48:04;;;;;;;1999.90;999.90;;;;;;;2.71;100.00;101899.00;10333926;28;20101;-70
2024/01/13 15:53:07;;;;;;;1999.90;999.90;;;;;;;2.66;100.00;101893.84;10333738;28;20061;-70
2024/01/13 15:58:09;;;;;;;1999.90;999.90;;;;;;;2.63;100.00;101903.38;10333554;28;20125;-70
2024/01/13 16:03:12;;;;;;;1999.90;999.90;;;;;;;2.58;100.00;101904.22;10333772;28;20056;-70
2024/01/13 16:08:14;;;;;;;1999.90;999.90;;;;;;;2.71;100.00;101891.25;10337234;28;20050;-70
2024/01/13 16:13:16;;;;;;;1999.90;999.90;;;;;;;2.60;100.00;101897.31;10341732;28;20052;-70
2024/01/13 16:18:19;;;;;;;1999.90;999.90;;;;;;;2.63;100.00;101900.78;10341347;28;20076;-70
2024/01/13 16:23:22;;;;;;;1999.90;999.90;;;;;;;2.48;100.00;101884.47;10341475;28;20114;-69
2024/01/13 16:28:25;;;;;;;1999.90;999.90;;;;;;;2.41;100.00;101869.88;10341055;28;20061;-70
2024/01/13 16:33:28;;;;;;;1999.90;999.90;;;;;;;2.41;100.00;101882.81;10340673;28;20379;-70
2024/01/13 16:38:30;;;;;;;1999.90;999.90;;;;;;;2.31;100.00;101876.84;10340815;28;20101;-71
2024/01/13 16:43:33;;;;;;;1999.90;999.90;;;;;;;2.39;100.00;101872.47;10340356;28;20132;-70
2024/01/13 16:48:35;;;;;;;1999.90;999.90;;;;;;;2.32;100.00;101880.25;10340217;28;20049;-70
2024/01/13 16:53:38;;;;;;;1999.90;999.90;;;;;;;2.27;100.00;101876.84;10340022;28;20054;-69
2024/01/13 16:58:40;;;;;;;1999.90;999.90;;;;;;;2.31;100.00;101875.97;10339755;28;20046;-70
2024/01/13 17:03:44;;;;;;;1999.90;999.90;;;;;;;2.29;100.00;101878.56;10339799;28;20092;-70
2024/01/13 17:08:47;;;;;;;1999.90;999.90;;;;;;;2.47;100.00;101879.31;10339282;28;20129;-70
2024/01/13 17:13:50;;;;;;;1999.90;999.90;;;;;;;2.45;100.00;101865.56;10339281;28;20449;-70
2024/01/13 17:18:52;;;;;;;1999.90;999.90;;;;;;;2.28;100.00;101858.75;10336624;28;20065;-69
2024/01/13 17:23:56;;;;;;;1999.90;999.90;;;;;;;2.25;100.00;101856.19;10338651;28;20054;-70
2024/01/13 17:28:58;;;;;;;1999.90;999.90;;;;;;;2.33;100.00;101858.72;10338782;28;20136;-70
2024/01/13 17:34:00;;;;;;;1999.90;999.90;;;;;;;2.35;100.00;101875.94;10338441;28;20081;-70
2024/01/13 17:39:03;;;;;;;1999.90;999.90;;;;;;;2.30;100.00;101854.44;10338457;28;20056;-70
2024/01/13 17:44:05;;;;;;;1999.90;999.90;;;;;;;2.25;100.00;101838.09;10338033;28;20390;-70
2024/01/13 17:49:09;;;;;;;1999.90;999.90;;;;;;;2.24;100.00;101844.16;10337804;28;20406;-69
2024/01/13 17:54:12;;;;;;;1999.90;999.90;;;;;;;2.36;100.00;101840.63;10337693;28;20054;-70
2024/01/13 17:59:15;;;;;;;1999.90;999.90;;;;;;;2.31;100.00;101835.47;10337684;28;20090;-70
2024/01/13 18:04:17;;;;;;;1999.90;999.90;;;;;;;2.30;100.00;101843.25;10337224;28;20129;-70
2024/01/13 18:09:20;;;;;;;1999.90;999.90;;;;;;;2.35;100.00;101831.16;10336743;28;20061;-69
2024/01/13 18:14:22;;;;;;;1999.90;999.90;;;;;;;2.47;100.00;101813.00;10337026;28;20134;-70
2024/01/13 18:19:24;;;;;;;1999.90;999.90;;;;;;;2.49;100.00;101813.81;10336714;28;20509;-70
2024/01/13 18:24:27;;;;;;;1999.90;999.90;;;;;;;2.38;100.00;101811.31;10336495;28;20050;-70
2024/01/13 18:29:30;;;;;;;1999.90;999.90;;;;;;;2.42;100.00;101822.47;10336240;28;20097;-69
2024/01/13 18:34:32;;;;;;;1999.90;999.90;;;;;;;2.49;100.00;101821.59;10335989;28;20137;-69
2024/01/13 18:39:36;;;;;;;1999.90;999.90;;;;;;;2.36;100.00;101797.53;10336022;28;20057;-70
2024/01/13 18:44:44;;;;;;;1999.90;999.90;;;;;;;2.53;100.00;101819.81;10335608;28;20050;-70
2024/01/13 18:49:46;;;;;;;1999.90;999.90;;;;;;;2.45;100.00;101817.28;10318218;28;20049;-70
2024/01/13 18:54:49;;;;;;;1999.90;999.90;;;;;;;2.41;100.00;101810.44;10335337;28;20054;-70
2024/01/13 18:59:51;;;;;;;1999.90;999.90;;;;;;;2.47;100.00;101805.22;10335101;28;20050;-70
2024/01/13 19:04:53;;;;;;;1999.90;999.90;;;;;;;2.50;100.00;101797.44;10333819;28;20422;-69
2024/01/13 19:09:56;;;;;;;1999.90;999.90;;;;;;;2.48;100.00;101794.00;10333518;28;20061;-69
2024/01/13 19:14:58;;;;;;;1999.90;999.90;;;;;;;2.50;100.00;101796.56;10334786;28;20133;-70
2024/01/13 19:20:01;;;;;;;1999.90;999.90;;;;;;;2.55;100.00;101784.47;10334560;28;20077;-70
2024/01/13 19:25:04;;;;;;;1999.90;999.90;;;;;;;2.54;100.00;101782.75;10333262;28;20058;-70
2024/01/13 19:30:07;;;;;;;1999.90;999.90;;;;;;;2.56;100.00;101775.84;10334315;28;20046;-70
2024/01/13 19:35:10;;;;;;;1999.90;999.90;;;;;;;2.66;100.00;101768.88;10334141;28;20081;-70
2024/01/13 19:40:14;;;;;;;1999.90;999.90;;;;;;;2.76;100.00;101767.94;10333922;28;20129;-69
2024/01/13 19:45:16;;;;;;;1999.90;999.90;;;;;;;2.55;100.00;101774.97;10332174;28;20575;-70
2024/01/13 19:50:19;;;;;;;1999.90;999.90;;;;;;;2.64;100.00;101755.97;10333675;28;20042;-70
2024/01/13 19:55:21;;;;;;;1999.90;999.90;;;;;;;2.58;100.00;101746.50;10333792;28;20060;-70
2024/01/13 20:00:23;;;;;;;1999.90;999.90;;;;;;;2.63;100.00;101737.88;10334021;28;20046;-70
2024/01/13 20:05:26;;;;;;;1999.90;999.90;;;;;;;2.63;100.00;101741.31;10333618;28;20054;-70
2024/01/13 20:10:29;;;;;;;1999.90;999.90;;;;;;;2.68;100.00;101742.13;10333035;28;20054;-70
2024/01/13 20:15:31;;;;;;;1999.90;999.90;;;;;;;2.66;100.00;101730.09;10333516;28;20053;-70
2024/01/13 20:20:34;;;;;;;1999.90;999.90;;;;;;;2.86;100.00;101724.69;10333252;28;20046;-70
2024/01/13 20:25:36;;;;;;;1999.90;999.90;;;;;;;2.82;100.00;101712.69;10347054;23;20055;-68
2024/01/13 20:30:38;;;;;;;1999.90;999.90;;;;;;;2.62;100.00;101708.56;10332931;28;20046;-67
2024/01/13 20:35:41;;;;;;;1999.90;999.90;;;;;;;2.58;100.00;101701.72;10332886;28;20046;-68
2024/01/13 20:40:45;;;;;;;1999.90;999.90;;;;;;;2.55;100.00;101710.34;10333035;28;20050;-67
2024/01/13 20:45:48;;;;;;;1999.90;999.90;;;;;;;2.68;100.00;101692.16;10332532;28;20478;-68
2024/01/13 20:50:56;;;;;;;1999.90;999.90;;;;;;;2.56;100.00;101675.03;10332694;28;20047;-67
2024/01/13 20:55:58;;;;;;;1999.90;999.90;;;;;;;2.63;100.00;101671.50;10337728;28;20077;-67
2024/01/13 21:01:01;;;;;;;1999.90;999.90;;;;;;;2.75;100.00;101657.59;10338896;28;20042;-68
2024/01/13 21:06:04;;;;;;;1999.90;999.90;;;;;;;2.60;100.00;101662.03;10339689;28;20117;-68
2024/01/13 21:11:06;;;;;;;1999.90;999.90;;;;;;;2.67;100.00;101649.03;10339282;28;20528;-68
2024/01/13 21:16:09;;;;;;;1999.90;999.90;;;;;;;2.70;100.00;101649.88;10338131;28;20093;-68
2024/01/13 21:21:12;;;;;;;1999.90;999.90;;;;;;;2.58;100.00;101645.69;10338981;28;20047;-68
2024/01/13 21:26:14;;;;;;;1999.90;999.90;;;;;;;2.59;100.00;101646.56;10338505;28;20133;-67
2024/01/13 21:31:17;;;;;;;1999.90;999.90;;;;;;;2.58;100.00;101642.25;10337248;28;20053;-68
2024/01/13 21:36:19;;;;;;;1999.90;999.90;;;;;;;2.64;100.00;101641.31;10338579;28;20054;-68
2024/01/13 21:41:22;;;;;;;1999.90;999.90;;;;;;;2.58;100.00;101624.16;10338248;28;20054;-68
2024/01/13 21:46:24;;;;;;;1999.90;999.90;;;;;;;2.60;100.00;101612.06;10338072;28;20065;-68
2024/01/13 21:51:26;;;;;;;1999.90;999.90;;;;;;;2.57;100.00;101609.50;10336611;28;20053;-68
2024/01/13 21:56:29;;;;;;;1999.90;999.90;;;;;;;2.74;100.00;101604.13;10320374;28;20074;-68